Huvudsida
METAR-TAF:

METAR-TAF

Flygplatser :

Bodö, Norge

Bodø flygplats

latitud: 67-16N, longitud: 014-22E, höjd: 1 m

Aktuellt väderrapport

Denna rapport gjordes för 37 minuter sedan, klockan 17:50 UTC
Vind 4 kt från sydväst
Temperatur 6°C
Fuktighet 87%
Tryck 1013 hPa
Sikt 10 km eller mer
Få moln på en höjd av 1200 ft
Spridda moln på en höjd av 4000 ft
Brutna moln på en höjd av 6000 ft

METAR: ENBO 221750Z 23004KT 9999 FEW012 SCT040 BKN060 06/04 Q1013 NOSIG

Tid: 20:27 (18:27 UTC)

Väderprognos

Prognos gäller från 22 kl. 18 UTC till 23 kl. 18 UTC
Vind 8 kt från ost
Sikt 10 km eller mer
Få moln på en höjd av 1200 ft
Spridda moln på en höjd av 4000 ft
Temporärt
från 23 kl. 00 UTC till 23 kl. 09 UTC
Vind 18 kt från ost

TAF: ENBO 2218/2318 10008KT 9999 FEW012 SCT040 TEMPO 2300/2309 10018KT

Aktuella väderrapporter och prognoser från 4000 flygplatser (METAR- och TAF-rapporter).

De tillgängliga stationerna syns som gula och röda prickar på kartan.

För musen över prickarna för att se namnen på stationerna.

Klicka sedan för att få väderrapporter och prognoser.

För att ändra kartan: Klicka på de gröna knapparna med ett svart kors på för att zooma in; den gröna knappen med ett streck på för att zooma ut; eller på de gröna pilarna för angränsande kartor.


METAR-TAF: